PWSweather.com
Personal Weather Stations
Station Observations
TENMILE2
Watts Bar Lake, Ten Mile, TN 37880

Watts Bar LakeTen Mile, TN 37880

Lat: 35.686, Lon: -84.7068

Elevation: 767

Station Type: Davis VP2

http://www.wattsbarweather.net

Latest ConditionsUpdated 8:37:17 PM EDT Thursday, Jul 27, 2017
Currently Today's Max Today's Min Today's Average
Temperature 78.5°F25.8°C 90.2°F32.3°C 72.9°F22.7°C 79.2°F26.2°C
Dew Point 76.0°F24.4°C 80.2°F26.8°C 70.7°F21.5°C 74.7°F23.7°C
Winds Calm Calm 20.7 mph NNW33.3 kmh NNW - 1.7 mph 2.7 kmh
Wind Gusts -- 33.8 mph54.4 kmh - -
Humidity 92% 96% 67% 87%
Pressure 29.92 in1013.2 mb 30.06 in1017.9 mb 29.90 in1012.5 mb -
Precipitation - 1.12 in28.4 mm - -
Hour Temp Dew Point Humidity Winds Wind Gusts Pressure Precip Precip Rate Daily Precip Total
08:37 PM 78.5°F25.8°C 76.0°F24.4°C 92% Calm Calm -- 29.92 in1013.2 mb 0.00 in0.0 mm 0.00 in0.0 mm 1.12 in28.4 mm
08:32 PM 78.7°F25.9°C 75.8°F24.3°C 91% Calm Calm -- 29.92 in1013.2 mb 0.00 in0.0 mm 0.00 in0.0 mm 1.12 in28.4 mm
08:27 PM 79.0°F26.1°C 76.1°F24.5°C 91% Calm Calm 1.0 mph1.6 kmh 29.92 in1013.2 mb 0.00 in0.0 mm 0.00 in0.0 mm 1.12 in28.4 mm
08:22 PM 79.3°F26.3°C 76.4°F24.7°C 91% Calm Calm 1.0 mph1.6 kmh 29.92 in1013.2 mb 0.00 in0.0 mm 0.00 in0.0 mm 1.12 in28.4 mm
08:17 PM 79.5°F26.4°C 76.6°F24.8°C 91% Calm Calm 1.3 mph2.1 kmh 29.92 in1013.2 mb 0.00 in0.0 mm 0.00 in0.0 mm 1.12 in28.4 mm
08:12 PM 79.7°F26.5°C 76.5°F24.7°C 90% 1.3 mph E2.1 kmh E 1.3 mph2.1 kmh 29.92 in1013.2 mb 0.00 in0.0 mm 0.00 in0.0 mm 1.12 in28.4 mm
08:07 PM 80.1°F26.7°C 76.9°F24.9°C 90% Calm Calm 1.0 mph1.6 kmh 29.92 in1013.2 mb 0.00 in0.0 mm 0.00 in0.0 mm 1.12 in28.4 mm
08:02 PM 80.3°F26.8°C 76.8°F24.9°C 89% Calm Calm 1.3 mph2.1 kmh 29.92 in1013.2 mb 0.00 in0.0 mm 0.00 in0.0 mm 1.12 in28.4 mm
07:57 PM 80.4°F26.9°C 76.5°F24.7°C 88% Calm Calm 1.3 mph2.1 kmh 29.92 in1013.2 mb 0.00 in0.0 mm 0.00 in0.0 mm 1.12 in28.4 mm
07:52 PM 80.6°F27.0°C 76.7°F24.8°C 88% 1.3 mph E2.1 kmh E 1.3 mph2.1 kmh 29.92 in1013.2 mb 0.00 in0.0 mm 0.00 in0.0 mm 1.12 in28.4 mm
07:47 PM 81.0°F27.2°C 77.1°F25.1°C 88% 1.3 mph E2.1 kmh E 1.3 mph2.1 kmh 29.91 in1012.9 mb 0.00 in0.0 mm 0.00 in0.0 mm 1.12 in28.4 mm
07:42 PM 81.5°F27.5°C 77.6°F25.3°C 88% 1.3 mph E2.1 kmh E 2.5 mph4.0 kmh 29.91 in1012.9 mb 0.00 in0.0 mm 0.00 in0.0 mm 1.12 in28.4 mm
07:37 PM 82.2°F27.9°C 77.6°F25.3°C 86% 1.3 mph E2.1 kmh E 2.5 mph4.0 kmh 29.91 in1012.9 mb 0.00 in0.0 mm 0.00 in0.0 mm 1.12 in28.4 mm
07:32 PM 82.9°F28.3°C 78.7°F25.9°C 87% Calm Calm 3.0 mph4.8 kmh 29.91 in1012.9 mb 0.00 in0.0 mm 0.00 in0.0 mm 1.12 in28.4 mm
07:27 PM 83.3°F28.5°C 78.0°F25.6°C 84% 1.3 mph SE2.1 kmh SE 3.0 mph4.8 kmh 29.91 in1012.9 mb 0.00 in0.0 mm 0.00 in0.0 mm 1.12 in28.4 mm
07:21 PM 83.8°F28.8°C 77.8°F25.4°C 82% Calm Calm 3.0 mph4.8 kmh 29.91 in1012.9 mb 0.00 in0.0 mm 0.00 in0.0 mm 1.12 in28.4 mm
07:16 PM 84.2°F29.0°C 76.6°F24.8°C 78% 2.2 mph S3.5 kmh S 3.0 mph4.8 kmh 29.91 in1012.9 mb 0.00 in0.0 mm 0.00 in0.0 mm 1.12 in28.4 mm
07:11 PM 84.5°F29.2°C 78.5°F25.8°C 82% Calm Calm 3.0 mph4.8 kmh 29.91 in1012.9 mb 0.00 in0.0 mm 0.00 in0.0 mm 1.12 in28.4 mm
07:06 PM 85.0°F29.4°C 78.3°F25.7°C 80% 1.3 mph SE2.1 kmh SE 3.0 mph4.8 kmh 29.91 in1012.9 mb 0.00 in0.0 mm 0.00 in0.0 mm 1.12 in28.4 mm
07:01 PM 85.3°F29.6°C 78.6°F25.9°C 80% 1.3 mph S2.1 kmh S 3.8 mph6.1 kmh 29.91 in1012.9 mb 0.00 in0.0 mm 0.00 in0.0 mm 1.12 in28.4 mm
06:56 PM 85.6°F29.8°C 78.5°F25.8°C 79% 1.9 mph SSW3.1 kmh SSW 3.8 mph6.1 kmh 29.91 in1012.9 mb 0.00 in0.0 mm 0.00 in0.0 mm 1.12 in28.4 mm
06:51 PM 85.9°F29.9°C 79.8°F26.6°C 82% Calm Calm 1.3 mph2.1 kmh 29.91 in1012.9 mb 0.00 in0.0 mm 0.00 in0.0 mm 1.12 in28.4 mm
06:46 PM 86.1°F30.1°C 78.8°F26.0°C 79% 1.3 mph SE2.1 kmh SE 1.3 mph2.1 kmh 29.91 in1012.9 mb 0.00 in0.0 mm 0.00 in0.0 mm 1.12 in28.4 mm
06:41 PM 86.1°F30.1°C 78.2°F25.7°C 77% Calm Calm 2.0 mph3.2 kmh 29.91 in1012.9 mb 0.00 in0.0 mm 0.00 in0.0 mm 1.12 in28.4 mm
06:36 PM 86.3°F30.2°C 79.8°F26.6°C 81% 1.3 mph SW2.1 kmh SW 2.0 mph3.2 kmh 29.90 in1012.5 mb 0.00 in0.0 mm 0.00 in0.0 mm 1.12 in28.4 mm
06:31 PM 86.1°F30.1°C 79.6°F26.4°C 81% Calm Calm 2.5 mph4.0 kmh 29.90 in1012.5 mb 0.00 in0.0 mm 0.00 in0.0 mm 1.12 in28.4 mm
06:26 PM 86.2°F30.1°C 78.3°F25.7°C 77% 1.3 mph NNE2.1 kmh NNE 2.5 mph4.0 kmh 29.90 in1012.5 mb 0.00 in0.0 mm 0.00 in0.0 mm 1.12 in28.4 mm
06:21 PM 86.3°F30.2°C 78.4°F25.8°C 77% 1.3 mph SSW2.1 kmh SSW 1.3 mph2.1 kmh 29.90 in1012.5 mb 0.00 in0.0 mm 0.00 in0.0 mm 1.12 in28.4 mm
06:16 PM 86.5°F30.3°C 79.4°F26.3°C 79% Calm Calm 1.3 mph2.1 kmh 29.90 in1012.5 mb 0.00 in0.0 mm 0.00 in0.0 mm 1.12 in28.4 mm
06:11 PM 86.5°F30.3°C 78.6°F25.9°C 77% 1.3 mph ESE2.1 kmh ESE 1.3 mph2.1 kmh 29.90 in1012.5 mb 0.00 in0.0 mm 0.00 in0.0 mm 1.12 in28.4 mm
06:06 PM 86.4°F30.2°C 78.9°F26.1°C 78% 1.3 mph SW2.1 kmh SW 2.0 mph3.2 kmh 29.90 in1012.5 mb 0.00 in0.0 mm 0.00 in0.0 mm 1.12 in28.4 mm
06:01 PM 86.6°F30.3°C 78.7°F25.9°C 77% 1.3 mph SW2.1 kmh SW 2.0 mph3.2 kmh 29.90 in1012.5 mb 0.00 in0.0 mm 0.00 in0.0 mm 1.12 in28.4 mm
05:56 PM 86.5°F30.3°C 79.0°F26.1°C 78% Calm Calm 3.8 mph6.1 kmh 29.90 in1012.5 mb 0.00 in0.0 mm 0.00 in0.0 mm 1.12 in28.4 mm
05:51 PM 86.4°F30.2°C 78.9°F26.1°C 78% 1.5 mph SSW2.4 kmh SSW 3.8 mph6.1 kmh 29.91 in1012.9 mb 0.00 in0.0 mm 0.00 in0.0 mm 1.12 in28.4 mm
05:46 PM 86.5°F30.3°C 77.4°F25.2°C 74% 1.4 mph SSW2.3 kmh SSW 3.8 mph6.1 kmh 29.91 in1012.9 mb 0.00 in0.0 mm 0.00 in0.0 mm 1.12 in28.4 mm
05:41 PM 86.8°F30.4°C 77.3°F25.2°C 73% 1.3 mph SW2.1 kmh SW 2.5 mph4.0 kmh 29.91 in1012.9 mb 0.00 in0.0 mm 0.00 in0.0 mm 1.12 in28.4 mm
05:36 PM 86.7°F30.4°C 78.8°F26.0°C 77% 1.3 mph SE2.1 kmh SE 2.5 mph4.0 kmh 29.91 in1012.9 mb 0.00 in0.0 mm 0.00 in0.0 mm 1.12 in28.4 mm
05:31 PM 86.5°F30.3°C 78.2°F25.7°C 76% 1.3 mph SSE2.1 kmh SSE 3.0 mph4.8 kmh 29.92 in1013.2 mb 0.00 in0.0 mm 0.00 in0.0 mm 1.12 in28.4 mm
05:26 PM 86.1°F30.1°C 78.2°F25.7°C 77% 1.3 mph SSW2.1 kmh SSW 3.8 mph6.1 kmh 29.92 in1013.2 mb 0.00 in0.0 mm 0.00 in0.0 mm 1.12 in28.4 mm
05:21 PM 85.4°F29.7°C 77.9°F25.5°C 78% 1.3 mph ESE2.1 kmh ESE 4.0 mph6.4 kmh 29.92 in1013.2 mb 0.00 in0.0 mm 0.00 in0.0 mm 1.12 in28.4 mm
05:16 PM 85.0°F29.4°C 77.9°F25.5°C 79% 1.7 mph ENE2.7 kmh ENE 4.0 mph6.4 kmh 29.92 in1013.2 mb 0.00 in0.0 mm 0.00 in0.0 mm 1.12 in28.4 mm
05:11 PM 84.2°F29.0°C 78.2°F25.7°C 82% 1.3 mph SSE2.1 kmh SSE 5.0 mph8.0 kmh 29.92 in1013.2 mb 0.00 in0.0 mm 0.00 in0.0 mm 1.12 in28.4 mm
05:06 PM 83.6°F28.7°C 77.3°F25.2°C 81% 2.3 mph SSW3.7 kmh SSW 5.0 mph8.0 kmh 29.92 in1013.2 mb 0.00 in0.0 mm 0.00 in0.0 mm 1.12 in28.4 mm
05:01 PM 83.4°F28.6°C 77.8°F25.4°C 83% 1.8 mph SSE2.9 kmh SSE 5.0 mph8.0 kmh 29.93 in1013.5 mb 0.00 in0.0 mm 0.00 in0.0 mm 1.12 in28.4 mm
04:56 PM 83.2°F28.4°C 77.6°F25.3°C 83% 1.3 mph SSE2.1 kmh SSE 5.0 mph8.0 kmh 29.93 in1013.5 mb 0.00 in0.0 mm 0.00 in0.0 mm 1.12 in28.4 mm
04:51 PM 83.6°F28.7°C 77.3°F25.2°C 81% 1.4 mph SW2.3 kmh SW 5.0 mph8.0 kmh 29.93 in1013.5 mb 0.00 in0.0 mm 0.00 in0.0 mm 1.12 in28.4 mm
04:46 PM 83.9°F28.8°C 78.3°F25.7°C 83% 1.3 mph NE2.1 kmh NE 6.3 mph10.1 kmh 29.93 in1013.5 mb 0.00 in0.0 mm 0.00 in0.0 mm 1.12 in28.4 mm
04:41 PM 84.0°F28.9°C 79.7°F26.5°C 87% 2.4 mph SE3.9 kmh SE 6.3 mph10.1 kmh 29.93 in1013.5 mb 0.00 in0.0 mm 0.00 in0.0 mm 1.12 in28.4 mm
04:36 PM 83.5°F28.6°C 77.2°F25.1°C 81% 2.0 mph S3.2 kmh S 6.3 mph10.1 kmh 29.94 in1013.9 mb 0.00 in0.0 mm 0.00 in0.0 mm 1.12 in28.4 mm
04:31 PM 83.7°F28.7°C 77.4°F25.2°C 81% 2.5 mph SW4.0 kmh SW 5.0 mph8.0 kmh 29.93 in1013.5 mb 0.00 in0.0 mm 0.00 in0.0 mm 1.12 in28.4 mm
04:26 PM 84.1°F28.9°C 80.2°F26.8°C 88% 1.5 mph S2.4 kmh S 6.3 mph10.1 kmh 29.94 in1013.9 mb 0.00 in0.0 mm 0.00 in0.0 mm 1.12 in28.4 mm
04:21 PM 83.8°F28.8°C 79.9°F26.6°C 88% 2.3 mph SSW3.7 kmh SSW 6.3 mph10.1 kmh 29.94 in1013.9 mb 0.00 in0.0 mm 0.00 in0.0 mm 1.12 in28.4 mm
04:16 PM 83.4°F28.6°C 79.8°F26.6°C 89% 2.1 mph S3.4 kmh S 6.3 mph10.1 kmh 29.94 in1013.9 mb 0.00 in0.0 mm 0.00 in0.0 mm 1.12 in28.4 mm
04:11 PM 83.0°F28.3°C 80.1°F26.7°C 91% 1.4 mph S2.3 kmh S 2.5 mph4.0 kmh 29.94 in1013.9 mb 0.01 in0.3 mm 0.00 in0.0 mm 1.12 in28.4 mm
04:06 PM 82.7°F28.2°C 79.8°F26.6°C 91% 1.4 mph S2.3 kmh S 5.0 mph8.0 kmh 29.94 in1013.9 mb 0.01 in0.3 mm 0.00 in0.0 mm 1.12 in28.4 mm
04:01 PM 82.3°F27.9°C 79.1°F26.2°C 90% Calm Calm 5.0 mph8.0 kmh 29.95 in1014.2 mb 0.17 in4.3 mm 0.00 in0.0 mm 1.12 in28.4 mm
03:56 PM 81.9°F27.7°C 79.0°F26.1°C 91% 1.3 mph SE2.1 kmh SE 6.3 mph10.1 kmh 29.95 in1014.2 mb 0.46 in11.7 mm 0.00 in0.0 mm 1.12 in28.4 mm
03:51 PM 81.4°F27.4°C 79.2°F26.2°C 93% 1.6 mph SSE2.6 kmh SSE 6.3 mph10.1 kmh 29.95 in1014.2 mb 0.74 in18.8 mm 0.00 in0.0 mm 1.12 in28.4 mm
03:46 PM 80.6°F27.0°C 78.0°F25.6°C 92% 2.3 mph S3.7 kmh S 5.0 mph8.0 kmh 29.96 in1014.6 mb 0.89 in22.6 mm 0.00 in0.0 mm 1.12 in28.4 mm
03:41 PM 79.8°F26.6°C 78.5°F25.8°C 96% 1.6 mph WSW2.6 kmh WSW 2.5 mph4.0 kmh 29.96 in1014.6 mb 0.95 in24.1 mm 0.00 in0.0 mm 1.12 in28.4 mm
03:36 PM 78.8°F26.0°C 77.6°F25.3°C 96% 1.3 mph SW2.1 kmh SW 2.5 mph4.0 kmh 29.96 in1014.6 mb 0.99 in25.1 mm 0.00 in0.0 mm 1.12 in28.4 mm
03:31 PM 77.6°F25.3°C 76.3°F24.6°C 96% 1.4 mph NE2.3 kmh NE 5.0 mph8.0 kmh 29.97 in1014.9 mb 0.99 in25.1 mm 0.00 in0.0 mm 1.12 in28.4 mm
03:26 PM 76.4°F24.7°C 75.1°F23.9°C 96% 1.5 mph NE2.4 kmh NE 5.0 mph8.0 kmh 29.97 in1014.9 mb 0.99 in25.1 mm 0.00 in0.0 mm 1.12 in28.4 mm
03:21 PM 75.3°F24.1°C 73.8°F23.2°C 95% 1.3 mph NE2.1 kmh NE 10.0 mph16.1 kmh 29.97 in1014.9 mb 0.99 in25.1 mm 0.00 in0.0 mm 1.12 in28.4 mm
03:16 PM 74.6°F23.7°C 72.7°F22.6°C 94% 4.4 mph NNW7.1 kmh NNW 26.0 mph41.8 kmh 29.96 in1014.6 mb 0.99 in25.1 mm 0.12 in3.0 mm 1.12 in28.4 mm
03:11 PM 74.5°F23.6°C 72.3°F22.4°C 93% 1.5 mph SW2.4 kmh SW 26.0 mph41.8 kmh 29.96 in1014.6 mb 0.98 in24.9 mm 0.00 in0.0 mm 1.11 in28.2 mm
03:06 PM 75.0°F23.9°C 71.9°F22.2°C 90% 2.6 mph SE4.2 kmh SE 33.8 mph54.4 kmh 29.97 in1014.9 mb 0.98 in24.9 mm 1.92 in48.8 mm 1.11 in28.2 mm
03:01 PM 76.2°F24.6°C 70.7°F21.5°C 83% 20.7 mph NNW33.3 kmh NNW 33.8 mph54.4 kmh 29.99 in1015.6 mb 0.82 in20.8 mm 0.35 in8.9 mm 0.96 in24.4 mm
02:56 PM 78.3°F25.7°C 74.8°F23.8°C 89% 3.3 mph NNW5.3 kmh NNW 8.8 mph14.2 kmh 30.00 in1015.9 mb 0.50 in12.7 mm 2.50 in63.5 mm 0.64 in16.3 mm
02:50 PM 80.0°F26.7°C 74.7°F23.7°C 84% 3.1 mph NW5.0 kmh NW 10.0 mph16.1 kmh 29.98 in1015.2 mb 0.25 in6.4 mm 1.92 in48.8 mm 0.39 in9.9 mm
02:45 PM 82.8°F28.2°C 77.1°F25.1°C 83% 1.3 mph W2.1 kmh W 10.0 mph16.1 kmh 29.97 in1014.9 mb 0.09 in2.3 mm 0.60 in15.2 mm 0.23 in5.8 mm
02:40 PM 85.9°F29.9°C 76.9°F24.9°C 74% 1.7 mph ENE2.7 kmh ENE 12.5 mph20.1 kmh 29.96 in1014.6 mb 0.04 in1.0 mm 0.48 in12.2 mm 0.18 in4.6 mm
02:35 PM 87.9°F31.1°C 77.2°F25.1°C 70% 4.1 mph S6.6 kmh S 12.5 mph20.1 kmh 29.96 in1014.6 mb 0.00 in0.0 mm 0.00 in0.0 mm 0.14 in3.6 mm
02:30 PM 89.0°F31.7°C 76.9°F24.9°C 67% 6.3 mph SSE10.1 kmh SSE 9.0 mph14.5 kmh 29.96 in1014.6 mb 0.00 in0.0 mm 0.00 in0.0 mm 0.14 in3.6 mm
02:25 PM 89.2°F31.8°C 77.5°F25.3°C 68% 4.5 mph S7.2 kmh S 7.5 mph12.1 kmh 29.96 in1014.6 mb 0.00 in0.0 mm 0.00 in0.0 mm 0.14 in3.6 mm
02:20 PM 89.1°F31.7°C 79.1°F26.2°C 72% 2.6 mph S4.2 kmh S 7.5 mph12.1 kmh 29.96 in1014.6 mb 0.00 in0.0 mm 0.00 in0.0 mm 0.14 in3.6 mm
02:15 PM 89.4°F31.9°C 78.2°F25.7°C 69% 3.6 mph S5.8 kmh S 8.0 mph12.9 kmh 29.96 in1014.6 mb 0.00 in0.0 mm 0.00 in0.0 mm 0.14 in3.6 mm
02:10 PM 89.7°F32.1°C 78.9°F26.1°C 70% 1.4 mph WSW2.3 kmh WSW 8.0 mph12.9 kmh 29.97 in1014.9 mb 0.00 in0.0 mm 0.00 in0.0 mm 0.14 in3.6 mm
02:05 PM 89.6°F32.0°C 79.2°F26.2°C 71% 3.9 mph S6.3 kmh S 10.0 mph16.1 kmh 29.97 in1014.9 mb 0.00 in0.0 mm 0.00 in0.0 mm 0.14 in3.6 mm
02:00 PM 89.7°F32.1°C 77.6°F25.3°C 67% 4.2 mph S6.8 kmh S 10.0 mph16.1 kmh 29.97 in1014.9 mb 0.00 in0.0 mm 0.00 in0.0 mm 0.14 in3.6 mm
01:55 PM 90.2°F32.3°C 79.1°F26.2°C 70% 1.3 mph SSE2.1 kmh SSE 6.3 mph10.1 kmh 29.98 in1015.2 mb 0.00 in0.0 mm 0.00 in0.0 mm 0.14 in3.6 mm
01:50 PM 89.5°F31.9°C 77.5°F25.3°C 68% 2.3 mph SSE3.7 kmh SSE 7.0 mph11.3 kmh 29.98 in1015.2 mb 0.00 in0.0 mm 0.00 in0.0 mm 0.14 in3.6 mm
01:45 PM 89.7°F32.1°C 79.7°F26.5°C 72% 1.8 mph SE2.9 kmh SE 7.5 mph12.1 kmh 29.99 in1015.6 mb 0.00 in0.0 mm 0.00 in0.0 mm 0.14 in3.6 mm
01:40 PM 89.5°F31.9°C 77.8°F25.4°C 68% 2.2 mph W3.5 kmh W 8.8 mph14.2 kmh 29.99 in1015.6 mb 0.00 in0.0 mm 0.00 in0.0 mm 0.14 in3.6 mm
01:35 PM 89.2°F31.8°C 77.3°F25.2°C 68% 3.5 mph S5.6 kmh S 8.8 mph14.2 kmh 29.99 in1015.6 mb 0.00 in0.0 mm 0.00 in0.0 mm 0.14 in3.6 mm
01:30 PM 88.5°F31.4°C 78.2°F25.7°C 71% 1.3 mph WNW2.1 kmh WNW 9.0 mph14.5 kmh 29.99 in1015.6 mb 0.00 in0.0 mm 0.00 in0.0 mm 0.14 in3.6 mm
01:25 PM 88.0°F31.1°C 78.9°F26.1°C 74% 1.4 mph SE2.3 kmh SE 9.0 mph14.5 kmh 29.98 in1015.2 mb 0.00 in0.0 mm 0.00 in0.0 mm 0.14 in3.6 mm
01:20 PM 87.8°F31.0°C 77.1°F25.1°C 70% 2.3 mph ESE3.7 kmh ESE 11.3 mph18.2 kmh 29.98 in1015.2 mb 0.00 in0.0 mm 0.00 in0.0 mm 0.14 in3.6 mm
01:15 PM 87.5°F30.8°C 77.4°F25.2°C 72% 6.9 mph S11.1 kmh S 11.3 mph18.2 kmh 29.98 in1015.2 mb 0.00 in0.0 mm 0.00 in0.0 mm 0.14 in3.6 mm
01:10 PM 87.1°F30.6°C 78.0°F25.6°C 74% 6.2 mph S10.0 kmh S 11.3 mph18.2 kmh 29.99 in1015.6 mb 0.00 in0.0 mm 0.00 in0.0 mm 0.14 in3.6 mm
01:05 PM 87.0°F30.6°C 77.5°F25.3°C 73% 5.3 mph S8.5 kmh S 12.5 mph20.1 kmh 30.00 in1015.9 mb 0.00 in0.0 mm 0.00 in0.0 mm 0.14 in3.6 mm
01:00 PM 86.7°F30.4°C 78.0°F25.6°C 75% 6.5 mph S10.5 kmh S 12.5 mph20.1 kmh 30.00 in1015.9 mb 0.00 in0.0 mm 0.00 in0.0 mm 0.14 in3.6 mm
12:55 PM 86.4°F30.2°C 76.9°F24.9°C 73% 2.6 mph SW4.2 kmh SW 12.0 mph19.3 kmh 30.00 in1015.9 mb 0.00 in0.0 mm 0.00 in0.0 mm 0.14 in3.6 mm
12:50 PM 86.2°F30.1°C 77.2°F25.1°C 74% 3.5 mph S5.6 kmh S 13.8 mph22.2 kmh 30.00 in1015.9 mb 0.00 in0.0 mm 0.00 in0.0 mm 0.14 in3.6 mm
12:45 PM 85.9°F29.9°C 76.5°F24.7°C 73% 5.6 mph SSE9.0 kmh SSE 13.8 mph22.2 kmh 30.01 in1016.3 mb 0.00 in0.0 mm 0.00 in0.0 mm 0.14 in3.6 mm
12:40 PM 85.9°F29.9°C 76.9°F24.9°C 74% 8.2 mph SSE13.2 kmh SSE 12.5 mph20.1 kmh 30.01 in1016.3 mb 0.00 in0.0 mm 0.00 in0.0 mm 0.14 in3.6 mm
12:35 PM 85.6°F29.8°C 76.6°F24.8°C 74% 5.9 mph S9.5 kmh S 11.3 mph18.2 kmh 30.02 in1016.6 mb 0.00 in0.0 mm 0.00 in0.0 mm 0.14 in3.6 mm
12:30 PM 85.2°F29.6°C 76.2°F24.6°C 74% 6.0 mph S9.7 kmh S 10.0 mph16.1 kmh 30.02 in1016.6 mb 0.00 in0.0 mm 0.00 in0.0 mm 0.14 in3.6 mm
12:25 PM 84.9°F29.4°C 77.1°F25.1°C 77% 3.4 mph SSE5.5 kmh SSE 10.0 mph16.1 kmh 30.02 in1016.6 mb 0.00 in0.0 mm 0.00 in0.0 mm 0.14 in3.6 mm
12:20 PM 84.8°F29.3°C 76.2°F24.6°C 75% 5.1 mph S8.2 kmh S 10.0 mph16.1 kmh 30.02 in1016.6 mb 0.00 in0.0 mm 0.00 in0.0 mm 0.14 in3.6 mm
12:15 PM 84.1°F28.9°C 76.3°F24.6°C 77% 3.4 mph S5.5 kmh S 8.8 mph14.2 kmh 30.02 in1016.6 mb 0.00 in0.0 mm 0.00 in0.0 mm 0.14 in3.6 mm
12:10 PM 83.7°F28.7°C 75.5°F24.2°C 76% 5.2 mph SSW8.4 kmh SSW 8.8 mph14.2 kmh 30.03 in1016.9 mb 0.00 in0.0 mm 0.00 in0.0 mm 0.14 in3.6 mm
12:05 PM 83.5°F28.6°C 75.7°F24.3°C 77% 5.9 mph S9.5 kmh S 8.8 mph14.2 kmh 30.03 in1016.9 mb 0.00 in0.0 mm 0.00 in0.0 mm 0.14 in3.6 mm
12:00 PM 83.1°F28.4°C 76.4°F24.7°C 80% 2.3 mph SE3.7 kmh SE 7.0 mph11.3 kmh 30.03 in1016.9 mb 0.00 in0.0 mm 0.00 in0.0 mm 0.14 in3.6 mm
11:55 AM 83.0°F28.3°C 75.6°F24.2°C 78% 2.9 mph SSE4.7 kmh SSE 7.0 mph11.3 kmh 30.04 in1017.3 mb 0.00 in0.0 mm 0.00 in0.0 mm 0.14 in3.6 mm
11:50 AM 82.7°F28.2°C 76.4°F24.7°C 81% 2.5 mph SSE4.0 kmh SSE 7.5 mph12.1 kmh 30.04 in1017.3 mb 0.00 in0.0 mm 0.00 in0.0 mm 0.14 in3.6 mm
11:45 AM 82.3°F27.9°C 74.9°F23.8°C 78% 3.3 mph SSE5.3 kmh SSE 8.8 mph14.2 kmh 30.04 in1017.3 mb 0.00 in0.0 mm 0.00 in0.0 mm 0.14 in3.6 mm
11:40 AM 82.4°F28.0°C 75.7°F24.3°C 80% 2.9 mph S4.7 kmh S 8.8 mph14.2 kmh 30.05 in1017.6 mb 0.00 in0.0 mm 0.00 in0.0 mm 0.14 in3.6 mm
11:35 AM 82.3°F27.9°C 75.3°F24.1°C 79% 2.0 mph SW3.2 kmh SW 7.0 mph11.3 kmh 30.04 in1017.3 mb 0.00 in0.0 mm 0.00 in0.0 mm 0.14 in3.6 mm
11:30 AM 82.1°F27.8°C 75.8°F24.3°C 81% 2.8 mph S4.5 kmh S 7.5 mph12.1 kmh 30.04 in1017.3 mb 0.00 in0.0 mm 0.00 in0.0 mm 0.14 in3.6 mm
11:25 AM 81.9°F27.7°C 74.9°F23.8°C 79% 2.8 mph S4.5 kmh S 7.5 mph12.1 kmh 30.05 in1017.6 mb 0.00 in0.0 mm 0.00 in0.0 mm 0.14 in3.6 mm
11:20 AM 81.8°F27.7°C 74.8°F23.8°C 79% 4.0 mph SE6.4 kmh SE 8.8 mph14.2 kmh 30.05 in1017.6 mb 0.00 in0.0 mm 0.00 in0.0 mm 0.14 in3.6 mm
11:15 AM 81.5°F27.5°C 74.1°F23.4°C 78% 3.6 mph S5.8 kmh S 8.8 mph14.2 kmh 30.05 in1017.6 mb 0.00 in0.0 mm 0.00 in0.0 mm 0.14 in3.6 mm
11:10 AM 81.4°F27.4°C 74.4°F23.6°C 79% 4.0 mph S6.4 kmh S 10.0 mph16.1 kmh 30.04 in1017.3 mb 0.00 in0.0 mm 0.00 in0.0 mm 0.14 in3.6 mm
11:05 AM 81.4°F27.4°C 74.0°F23.3°C 78% 6.1 mph SSE9.8 kmh SSE 10.0 mph16.1 kmh 30.05 in1017.6 mb 0.00 in0.0 mm 0.00 in0.0 mm 0.14 in3.6 mm
11:00 AM 81.3°F27.4°C 74.7°F23.7°C 80% 2.9 mph S4.7 kmh S 5.0 mph8.0 kmh 30.05 in1017.6 mb 0.00 in0.0 mm 0.00 in0.0 mm 0.14 in3.6 mm
10:54 AM 81.1°F27.3°C 74.5°F23.6°C 80% 2.7 mph S4.3 kmh S 5.0 mph8.0 kmh 30.05 in1017.6 mb 0.00 in0.0 mm 0.00 in0.0 mm 0.14 in3.6 mm
10:50 AM 80.8°F27.1°C 74.9°F23.8°C 82% 2.5 mph SSE4.0 kmh SSE 5.0 mph8.0 kmh 30.05 in1017.6 mb 0.00 in0.0 mm 0.00 in0.0 mm 0.14 in3.6 mm
10:44 AM 80.8°F27.1°C 74.5°F23.6°C 81% 2.4 mph S3.9 kmh S 6.3 mph10.1 kmh 30.05 in1017.6 mb 0.00 in0.0 mm 0.00 in0.0 mm 0.14 in3.6 mm
10:39 AM 80.8°F27.1°C 74.2°F23.4°C 80% 3.2 mph SSE5.1 kmh SSE 7.5 mph12.1 kmh 30.05 in1017.6 mb 0.00 in0.0 mm 0.00 in0.0 mm 0.14 in3.6 mm
10:34 AM 80.8°F27.1°C 74.2°F23.4°C 80% 3.2 mph S5.1 kmh S 7.5 mph12.1 kmh 30.05 in1017.6 mb 0.00 in0.0 mm 0.00 in0.0 mm 0.14 in3.6 mm
10:29 AM 80.6°F27.0°C 74.7°F23.7°C 82% 3.4 mph SW5.5 kmh SW 7.5 mph12.1 kmh 30.05 in1017.6 mb 0.00 in0.0 mm 0.00 in0.0 mm 0.14 in3.6 mm
10:24 AM 80.3°F26.8°C 75.1°F23.9°C 84% 2.7 mph S4.3 kmh S 6.3 mph10.1 kmh 30.05 in1017.6 mb 0.00 in0.0 mm 0.00 in0.0 mm 0.14 in3.6 mm
10:19 AM 79.6°F26.4°C 73.7°F23.2°C 82% 3.9 mph S6.3 kmh S 6.3 mph10.1 kmh 30.05 in1017.6 mb 0.00 in0.0 mm 0.00 in0.0 mm 0.14 in3.6 mm
10:14 AM 78.7°F25.9°C 73.9°F23.3°C 85% 2.4 mph SSE3.9 kmh SSE 6.3 mph10.1 kmh 30.05 in1017.6 mb 0.00 in0.0 mm 0.00 in0.0 mm 0.14 in3.6 mm
10:09 AM 78.3°F25.7°C 73.8°F23.2°C 86% 2.5 mph SSW4.0 kmh SSW 6.3 mph10.1 kmh 30.05 in1017.6 mb 0.00 in0.0 mm 0.00 in0.0 mm 0.14 in3.6 mm
10:04 AM 77.8°F25.4°C 73.0°F22.8°C 85% 3.0 mph S4.8 kmh S 7.5 mph12.1 kmh 30.05 in1017.6 mb 0.00 in0.0 mm 0.00 in0.0 mm 0.14 in3.6 mm
09:59 AM 77.4°F25.2°C 73.2°F22.9°C 87% 1.6 mph S2.6 kmh S 7.5 mph12.1 kmh 30.05 in1017.6 mb 0.00 in0.0 mm 0.00 in0.0 mm 0.14 in3.6 mm
09:54 AM 77.2°F25.1°C 73.0°F22.8°C 87% 2.9 mph S4.7 kmh S 7.0 mph11.3 kmh 30.05 in1017.6 mb 0.00 in0.0 mm 0.00 in0.0 mm 0.14 in3.6 mm
09:49 AM 77.0°F25.0°C 73.2°F22.9°C 88% 2.7 mph S4.3 kmh S 7.5 mph12.1 kmh 30.05 in1017.6 mb 0.00 in0.0 mm 0.00 in0.0 mm 0.14 in3.6 mm
09:44 AM 76.8°F24.9°C 72.7°F22.6°C 87% 3.9 mph S6.3 kmh S 8.8 mph14.2 kmh 30.05 in1017.6 mb 0.00 in0.0 mm 0.00 in0.0 mm 0.14 in3.6 mm
09:39 AM 76.7°F24.8°C 72.9°F22.7°C 88% 3.4 mph S5.5 kmh S 8.8 mph14.2 kmh 30.05 in1017.6 mb 0.00 in0.0 mm 0.00 in0.0 mm 0.14 in3.6 mm
09:34 AM 76.7°F24.8°C 72.6°F22.6°C 87% 3.9 mph S6.3 kmh S 7.5 mph12.1 kmh 30.05 in1017.6 mb 0.00 in0.0 mm 0.00 in0.0 mm 0.14 in3.6 mm
09:29 AM 76.7°F24.8°C 72.2°F22.3°C 86% 3.8 mph S6.1 kmh S 7.5 mph12.1 kmh 30.06 in1017.9 mb 0.00 in0.0 mm 0.00 in0.0 mm 0.14 in3.6 mm
09:24 AM 76.6°F24.8°C 73.1°F22.8°C 89% 2.2 mph SSE3.5 kmh SSE 7.5 mph12.1 kmh 30.06 in1017.9 mb 0.00 in0.0 mm 0.00 in0.0 mm 0.14 in3.6 mm
09:19 AM 76.2°F24.6°C 72.7°F22.6°C 89% 1.9 mph S3.1 kmh S 7.5 mph12.1 kmh 30.06 in1017.9 mb 0.00 in0.0 mm 0.00 in0.0 mm 0.14 in3.6 mm
09:14 AM 75.9°F24.4°C 72.7°F22.6°C 90% 1.9 mph S3.1 kmh S 2.5 mph4.0 kmh 30.06 in1017.9 mb 0.00 in0.0 mm 0.00 in0.0 mm 0.14 in3.6 mm
09:09 AM 75.6°F24.2°C 73.1°F22.8°C 92% 1.4 mph S2.3 kmh S 2.5 mph4.0 kmh 30.06 in1017.9 mb 0.00 in0.0 mm 0.00 in0.0 mm 0.14 in3.6 mm
09:04 AM 75.4°F24.1°C 72.9°F22.7°C 92% 1.3 mph E2.1 kmh E 3.0 mph4.8 kmh 30.06 in1017.9 mb 0.00 in0.0 mm 0.00 in0.0 mm 0.14 in3.6 mm
08:59 AM 75.1°F23.9°C 72.6°F22.6°C 92% Calm Calm 3.0 mph4.8 kmh 30.06 in1017.9 mb 0.00 in0.0 mm 0.00 in0.0 mm 0.14 in3.6 mm
08:54 AM 75.0°F23.9°C 72.8°F22.7°C 93% Calm Calm 3.8 mph6.1 kmh 30.05 in1017.6 mb 0.00 in0.0 mm 0.00 in0.0 mm 0.14 in3.6 mm
08:49 AM 74.6°F23.7°C 72.4°F22.4°C 93% 2.3 mph S3.7 kmh S 3.8 mph6.1 kmh 30.05 in1017.6 mb 0.00 in0.0 mm 0.00 in0.0 mm 0.14 in3.6 mm
08:44 AM 74.4°F23.6°C 72.5°F22.5°C 94% 1.3 mph S2.1 kmh S 1.3 mph2.1 kmh 30.06 in1017.9 mb 0.00 in0.0 mm 0.00 in0.0 mm 0.14 in3.6 mm
08:39 AM 74.0°F23.3°C 72.1°F22.3°C 94% Calm Calm 1.3 mph2.1 kmh 30.06 in1017.9 mb 0.00 in0.0 mm 0.00 in0.0 mm 0.14 in3.6 mm
08:34 AM 73.7°F23.2°C 71.8°F22.1°C 94% 1.3 mph SW2.1 kmh SW 3.0 mph4.8 kmh 30.05 in1017.6 mb 0.00 in0.0 mm 0.00 in0.0 mm 0.14 in3.6 mm
08:29 AM 73.5°F23.1°C 71.6°F22.0°C 94% 1.3 mph SW2.1 kmh SW 3.0 mph4.8 kmh 30.05 in1017.6 mb 0.00 in0.0 mm 0.00 in0.0 mm 0.14 in3.6 mm
08:24 AM 73.4°F23.0°C 71.5°F21.9°C 94% Calm Calm 5.0 mph8.0 kmh 30.06 in1017.9 mb 0.00 in0.0 mm 0.00 in0.0 mm 0.14 in3.6 mm
08:19 AM 73.1°F22.8°C 71.2°F21.8°C 94% 1.8 mph SSW2.9 kmh SSW 6.0 mph9.7 kmh 30.06 in1017.9 mb 0.01 in0.3 mm 0.00 in0.0 mm 0.14 in3.6 mm
08:14 AM 73.1°F22.8°C 71.2°F21.8°C 94% 2.3 mph SSW3.7 kmh SSW 6.3 mph10.1 kmh 30.06 in1017.9 mb 0.01 in0.3 mm 0.00 in0.0 mm 0.14 in3.6 mm
08:09 AM 73.0°F22.8°C 71.2°F21.8°C 94% 3.3 mph SSW5.3 kmh SSW 8.0 mph12.9 kmh 30.06 in1017.9 mb 0.01 in0.3 mm 0.00 in0.0 mm 0.14 in3.6 mm
08:04 AM 73.0°F22.8°C 71.2°F21.8°C 94% 2.0 mph S3.2 kmh S 8.0 mph12.9 kmh 30.05 in1017.6 mb 0.01 in0.3 mm 0.00 in0.0 mm 0.14 in3.6 mm
07:59 AM 73.0°F22.8°C 71.1°F21.7°C 94% 3.3 mph SSE5.3 kmh SSE 10.0 mph16.1 kmh 30.05 in1017.6 mb 0.02 in0.5 mm 0.00 in0.0 mm 0.14 in3.6 mm
07:54 AM 72.9°F22.7°C 71.0°F21.7°C 94% 4.0 mph S6.4 kmh S 10.0 mph16.1 kmh 30.05 in1017.6 mb 0.03 in0.8 mm 0.00 in0.0 mm 0.14 in3.6 mm
07:49 AM 73.0°F22.8°C 71.1°F21.7°C 94% 1.5 mph S2.4 kmh S 6.3 mph10.1 kmh 30.05 in1017.6 mb 0.04 in1.0 mm 0.00 in0.0 mm 0.14 in3.6 mm
07:44 AM 72.9°F22.7°C 71.1°F21.7°C 94% 1.7 mph E2.7 kmh E 6.3 mph10.1 kmh 30.05 in1017.6 mb 0.04 in1.0 mm 0.00 in0.0 mm 0.14 in3.6 mm
07:39 AM 72.9°F22.7°C 71.1°F21.7°C 94% 2.6 mph S4.2 kmh S 7.5 mph12.1 kmh 30.05 in1017.6 mb 0.08 in2.0 mm 0.00 in0.0 mm 0.14 in3.6 mm
07:34 AM 72.9°F22.7°C 71.1°F21.7°C 94% 2.4 mph S3.9 kmh S 7.5 mph12.1 kmh 30.05 in1017.6 mb 0.13 in3.3 mm 0.00 in0.0 mm 0.14 in3.6 mm
07:29 AM 72.9°F22.7°C 71.0°F21.7°C 94% 1.6 mph S2.6 kmh S 8.8 mph14.2 kmh 30.05 in1017.6 mb 0.14 in3.6 mm 0.00 in0.0 mm 0.14 in3.6 mm
07:24 AM 72.9°F22.7°C 71.0°F21.7°C 94% 3.4 mph S5.5 kmh S 8.8 mph14.2 kmh 30.05 in1017.6 mb 0.14 in3.6 mm 0.12 in3.0 mm 0.14 in3.6 mm
07:19 AM 73.1°F22.8°C 71.0°F21.7°C 93% 1.8 mph SSW2.9 kmh SSW 8.8 mph14.2 kmh 30.04 in1017.3 mb 0.13 in3.3 mm 0.00 in0.0 mm 0.13 in3.3 mm
07:14 AM 73.1°F22.8°C 71.0°F21.7°C 93% 3.1 mph S5.0 kmh S 8.8 mph14.2 kmh 30.04 in1017.3 mb 0.13 in3.3 mm 0.00 in0.0 mm 0.13 in3.3 mm
07:09 AM 73.1°F22.8°C 70.9°F21.6°C 93% 1.7 mph S2.7 kmh S 7.5 mph12.1 kmh 30.04 in1017.3 mb 0.13 in3.3 mm 0.00 in0.0 mm 0.13 in3.3 mm
07:04 AM 73.1°F22.8°C 71.2°F21.8°C 94% 3.2 mph S5.1 kmh S 6.3 mph10.1 kmh 30.04 in1017.3 mb 0.13 in3.3 mm 0.02 in0.5 mm 0.13 in3.3 mm
06:59 AM 73.1°F22.8°C 71.2°F21.8°C 94% 1.8 mph SSE2.9 kmh SSE 5.0 mph8.0 kmh 30.04 in1017.3 mb 0.11 in2.8 mm 0.00 in0.0 mm 0.11 in2.8 mm
06:54 AM 73.2°F22.9°C 71.0°F21.7°C 93% 1.8 mph SSE2.9 kmh SSE 5.0 mph8.0 kmh 30.05 in1017.6 mb 0.11 in2.8 mm 0.24 in6.1 mm 0.11 in2.8 mm
06:49 AM 73.5°F23.1°C 71.4°F21.9°C 93% 1.3 mph SE2.1 kmh SE 5.0 mph8.0 kmh 30.05 in1017.6 mb 0.09 in2.3 mm 0.12 in3.0 mm 0.09 in2.3 mm
06:44 AM 73.9°F23.3°C 71.4°F21.9°C 92% 1.3 mph ESE2.1 kmh ESE 5.0 mph8.0 kmh 30.05 in1017.6 mb 0.08 in2.0 mm 0.36 in9.1 mm 0.08 in2.0 mm
06:39 AM 74.5°F23.6°C 71.4°F21.9°C 90% 1.3 mph SE2.1 kmh SE 6.3 mph10.1 kmh 30.05 in1017.6 mb 0.05 in1.3 mm 0.60 in15.2 mm 0.05 in1.3 mm
06:34 AM 74.9°F23.8°C 71.1°F21.7°C 88% 2.1 mph SSW3.4 kmh SSW 6.3 mph10.1 kmh 30.05 in1017.6 mb 0.00 in0.0 mm 0.00 in0.0 mm 0.00 in0.0 mm
06:29 AM 74.8°F23.8°C 71.3°F21.8°C 89% 1.5 mph SE2.4 kmh SE 6.3 mph10.1 kmh 30.04 in1017.3 mb 0.00 in0.0 mm 0.00 in0.0 mm 0.00 in0.0 mm
06:24 AM 74.5°F23.6°C 70.7°F21.5°C 88% 1.3 mph ESE2.1 kmh ESE 2.5 mph4.0 kmh 30.05 in1017.6 mb 0.00 in0.0 mm 0.00 in0.0 mm 0.00 in0.0 mm
06:19 AM 74.2°F23.4°C 71.1°F21.7°C 90% 1.3 mph SE2.1 kmh SE 3.0 mph4.8 kmh 30.04 in1017.3 mb 0.00 in0.0 mm 0.00 in0.0 mm 0.00 in0.0 mm
06:14 AM 74.1°F23.4°C 71.0°F21.7°C 90% Calm Calm 3.0 mph4.8 kmh 30.04 in1017.3 mb 0.00 in0.0 mm 0.00 in0.0 mm 0.00 in0.0 mm
06:09 AM 74.1°F23.4°C 71.0°F21.7°C 90% 1.8 mph SE2.9 kmh SE 3.0 mph4.8 kmh 30.04 in1017.3 mb 0.00 in0.0 mm 0.00 in0.0 mm 0.00 in0.0 mm
06:04 AM 73.9°F23.3°C 71.1°F21.7°C 91% 1.3 mph ENE2.1 kmh ENE 3.0 mph4.8 kmh 30.04 in1017.3 mb 0.00 in0.0 mm 0.00 in0.0 mm 0.00 in0.0 mm
05:59 AM 73.7°F23.2°C 71.2°F21.8°C 92% 1.7 mph SE2.7 kmh SE 2.5 mph4.0 kmh 30.04 in1017.3 mb 0.00 in0.0 mm 0.00 in0.0 mm 0.00 in0.0 mm
05:54 AM 73.7°F23.2°C 71.2°F21.8°C 92% Calm Calm 1.3 mph2.1 kmh 30.03 in1016.9 mb 0.00 in0.0 mm 0.00 in0.0 mm 0.00 in0.0 mm
05:49 AM 73.7°F23.2°C 71.5°F21.9°C 93% Calm Calm 1.3 mph2.1 kmh 30.03 in1016.9 mb 0.00 in0.0 mm 0.00 in0.0 mm 0.00 in0.0 mm
05:44 AM 73.8°F23.2°C 71.6°F22.0°C 93% 1.3 mph ESE2.1 kmh ESE 1.3 mph2.1 kmh 30.03 in1016.9 mb 0.00 in0.0 mm 0.00 in0.0 mm 0.00 in0.0 mm
05:38 AM 73.9°F23.3°C 71.7°F22.1°C 93% Calm Calm -- 30.03 in1016.9 mb 0.00 in0.0 mm 0.00 in0.0 mm 0.00 in0.0 mm
05:33 AM 74.1°F23.4°C 71.9°F22.2°C 93% Calm Calm -- 30.03 in1016.9 mb 0.00 in0.0 mm 0.00 in0.0 mm 0.00 in0.0 mm
05:28 AM 74.1°F23.4°C 71.9°F22.2°C 93% Calm Calm -- 30.03 in1016.9 mb 0.00 in0.0 mm 0.00 in0.0 mm 0.00 in0.0 mm
05:23 AM 74.3°F23.5°C 72.1°F22.3°C 93% Calm Calm 1.0 mph1.6 kmh 30.03 in1016.9 mb 0.00 in0.0 mm 0.00 in0.0 mm 0.00 in0.0 mm
05:18 AM 74.5°F23.6°C 72.3°F22.4°C 93% Calm Calm 1.0 mph1.6 kmh 30.03 in1016.9 mb 0.00 in0.0 mm 0.00 in0.0 mm 0.00 in0.0 mm
05:13 AM 74.6°F23.7°C 72.1°F22.3°C 92% Calm Calm 1.3 mph2.1 kmh 30.03 in1016.9 mb 0.00 in0.0 mm 0.00 in0.0 mm 0.00 in0.0 mm
05:08 AM 74.8°F23.8°C 72.3°F22.4°C 92% Calm Calm 1.3 mph2.1 kmh 30.03 in1016.9 mb 0.00 in0.0 mm 0.00 in0.0 mm 0.00 in0.0 mm
05:03 AM 74.8°F23.8°C 72.3°F22.4°C 92% 1.3 mph ESE2.1 kmh ESE 1.3 mph2.1 kmh 30.03 in1016.9 mb 0.00 in0.0 mm 0.00 in0.0 mm 0.00 in0.0 mm
04:58 AM 74.9°F23.8°C 72.4°F22.4°C 92% 1.3 mph ESE2.1 kmh ESE 1.3 mph2.1 kmh 30.03 in1016.9 mb 0.00 in0.0 mm 0.00 in0.0 mm 0.00 in0.0 mm
04:53 AM 74.9°F23.8°C 72.4°F22.4°C 92% Calm Calm 2.0 mph3.2 kmh 30.03 in1016.9 mb 0.00 in0.0 mm 0.00 in0.0 mm 0.00 in0.0 mm
04:48 AM 75.0°F23.9°C 72.5°F22.5°C 92% 1.3 mph ESE2.1 kmh ESE 2.0 mph3.2 kmh 30.03 in1016.9 mb 0.00 in0.0 mm 0.00 in0.0 mm 0.00 in0.0 mm
04:43 AM 75.1°F23.9°C 72.6°F22.6°C 92% 1.3 mph ESE2.1 kmh ESE 2.5 mph4.0 kmh 30.03 in1016.9 mb 0.00 in0.0 mm 0.00 in0.0 mm 0.00 in0.0 mm
04:38 AM 75.0°F23.9°C 72.5°F22.5°C 92% 1.3 mph ESE2.1 kmh ESE 2.5 mph4.0 kmh 30.03 in1016.9 mb 0.00 in0.0 mm 0.00 in0.0 mm 0.00 in0.0 mm
04:33 AM 75.0°F23.9°C 72.5°F22.5°C 92% Calm Calm 2.0 mph3.2 kmh 30.03 in1016.9 mb 0.00 in0.0 mm 0.00 in0.0 mm 0.00 in0.0 mm
04:28 AM 75.0°F23.9°C 72.8°F22.7°C 93% Calm Calm 1.3 mph2.1 kmh 30.03 in1016.9 mb 0.00 in0.0 mm 0.00 in0.0 mm 0.00 in0.0 mm
04:23 AM 74.7°F23.7°C 72.5°F22.5°C 93% 1.3 mph E2.1 kmh E 1.3 mph2.1 kmh 30.03 in1016.9 mb 0.00 in0.0 mm 0.00 in0.0 mm 0.00 in0.0 mm
04:18 AM 74.5°F23.6°C 72.3°F22.4°C 93% Calm Calm -- 30.03 in1016.9 mb 0.00 in0.0 mm 0.00 in0.0 mm 0.00 in0.0 mm
04:13 AM 74.5°F23.6°C 72.3°F22.4°C 93% Calm Calm -- 30.03 in1016.9 mb 0.00 in0.0 mm 0.00 in0.0 mm 0.00 in0.0 mm
04:08 AM 74.5°F23.6°C 72.3°F22.4°C 93% Calm Calm -- 30.03 in1016.9 mb 0.00 in0.0 mm 0.00 in0.0 mm 0.00 in0.0 mm
04:03 AM 74.5°F23.6°C 72.3°F22.4°C 93% Calm Calm 2.0 mph3.2 kmh 30.03 in1016.9 mb 0.00 in0.0 mm 0.00 in0.0 mm 0.00 in0.0 mm
03:58 AM 74.5°F23.6°C 72.7°F22.6°C 94% Calm Calm 2.0 mph3.2 kmh 30.03 in1016.9 mb 0.00 in0.0 mm 0.00 in0.0 mm 0.00 in0.0 mm
03:53 AM 74.6°F23.7°C 72.8°F22.7°C 94% Calm Calm 2.5 mph4.0 kmh 30.03 in1016.9 mb 0.00 in0.0 mm 0.00 in0.0 mm 0.00 in0.0 mm
03:48 AM 74.4°F23.6°C 72.6°F22.6°C 94% 1.7 mph SE2.7 kmh SE 2.5 mph4.0 kmh 30.03 in1016.9 mb 0.00 in0.0 mm 0.00 in0.0 mm 0.00 in0.0 mm
03:43 AM 74.4°F23.6°C 72.8°F22.7°C 95% Calm Calm 1.0 mph1.6 kmh 30.03 in1016.9 mb 0.00 in0.0 mm 0.00 in0.0 mm 0.00 in0.0 mm
03:38 AM 74.4°F23.6°C 72.9°F22.7°C 95% Calm Calm 1.0 mph1.6 kmh 30.03 in1016.9 mb 0.00 in0.0 mm 0.00 in0.0 mm 0.00 in0.0 mm
03:33 AM 74.4°F23.6°C 72.9°F22.7°C 95% Calm Calm 1.0 mph1.6 kmh 30.03 in1016.9 mb 0.00 in0.0 mm 0.00 in0.0 mm 0.00 in0.0 mm
03:28 AM 74.2°F23.4°C 72.7°F22.6°C 95% Calm Calm -- 30.03 in1016.9 mb 0.00 in0.0 mm 0.00 in0.0 mm 0.00 in0.0 mm
03:23 AM 74.2°F23.4°C 72.7°F22.6°C 95% Calm Calm -- 30.03 in1016.9 mb 0.00 in0.0 mm 0.00 in0.0 mm 0.00 in0.0 mm
03:18 AM 74.1°F23.4°C 72.5°F22.5°C 95% Calm Calm -- 30.03 in1016.9 mb 0.00 in0.0 mm 0.00 in0.0 mm 0.00 in0.0 mm
03:13 AM 74.0°F23.3°C 72.4°F22.4°C 95% Calm Calm -- 30.03 in1016.9 mb 0.00 in0.0 mm 0.00 in0.0 mm 0.00 in0.0 mm
03:08 AM 74.0°F23.3°C 72.5°F22.5°C 95% Calm Calm -- 30.03 in1016.9 mb 0.00 in0.0 mm 0.00 in0.0 mm 0.00 in0.0 mm
03:03 AM 74.0°F23.3°C 72.5°F22.5°C 95% Calm Calm -- 30.03 in1016.9 mb 0.00 in0.0 mm 0.00 in0.0 mm 0.00 in0.0 mm
02:58 AM 74.0°F23.3°C 72.4°F22.4°C 95% Calm Calm -- 30.03 in1016.9 mb 0.00 in0.0 mm 0.00 in0.0 mm 0.00 in0.0 mm
02:53 AM 74.2°F23.4°C 72.6°F22.6°C 95% Calm Calm -- 30.03 in1016.9 mb 0.00 in0.0 mm 0.00 in0.0 mm 0.00 in0.0 mm
02:48 AM 74.3°F23.5°C 72.4°F22.4°C 94% Calm Calm -- 30.03 in1016.9 mb 0.00 in0.0 mm 0.00 in0.0 mm 0.00 in0.0 mm
02:43 AM 74.4°F23.6°C 72.9°F22.7°C 95% Calm Calm -- 30.03 in1016.9 mb 0.00 in0.0 mm 0.00 in0.0 mm 0.00 in0.0 mm
02:38 AM 74.5°F23.6°C 72.7°F22.6°C 94% Calm Calm 1.0 mph1.6 kmh 30.03 in1016.9 mb 0.00 in0.0 mm 0.00 in0.0 mm 0.00 in0.0 mm
02:33 AM 74.7°F23.7°C 72.8°F22.7°C 94% Calm Calm 1.0 mph1.6 kmh 30.03 in1016.9 mb 0.00 in0.0 mm 0.00 in0.0 mm 0.00 in0.0 mm
02:28 AM 74.7°F23.7°C 72.8°F22.7°C 94% Calm Calm 1.3 mph2.1 kmh 30.03 in1016.9 mb 0.00 in0.0 mm 0.00 in0.0 mm 0.00 in0.0 mm
02:23 AM 74.8°F23.8°C 72.9°F22.7°C 94% 1.3 mph N2.1 kmh N 1.3 mph2.1 kmh 30.03 in1016.9 mb 0.00 in0.0 mm 0.00 in0.0 mm 0.00 in0.0 mm
02:18 AM 74.9°F23.8°C 73.1°F22.8°C 94% Calm Calm 1.3 mph2.1 kmh 30.03 in1016.9 mb 0.00 in0.0 mm 0.00 in0.0 mm 0.00 in0.0 mm
02:13 AM 75.0°F23.9°C 73.2°F22.9°C 94% Calm Calm 2.0 mph3.2 kmh 30.03 in1016.9 mb 0.00 in0.0 mm 0.00 in0.0 mm 0.00 in0.0 mm
02:07 AM 75.1°F23.9°C 73.2°F22.9°C 94% Calm Calm 2.0 mph3.2 kmh 30.03 in1016.9 mb 0.00 in0.0 mm 0.00 in0.0 mm 0.00 in0.0 mm
02:02 AM 75.2°F24.0°C 73.3°F22.9°C 94% Calm Calm 3.8 mph6.1 kmh 30.03 in1016.9 mb 0.00 in0.0 mm 0.00 in0.0 mm 0.00 in0.0 mm
01:57 AM 75.3°F24.1°C 73.4°F23.0°C 94% 1.3 mph NNE2.1 kmh NNE 3.8 mph6.1 kmh 30.03 in1016.9 mb 0.00 in0.0 mm 0.00 in0.0 mm 0.00 in0.0 mm
01:52 AM 75.3°F24.1°C 73.5°F23.1°C 94% 1.3 mph NNE2.1 kmh NNE 2.5 mph4.0 kmh 30.03 in1016.9 mb 0.00 in0.0 mm 0.00 in0.0 mm 0.00 in0.0 mm
01:47 AM 75.3°F24.1°C 73.5°F23.1°C 94% Calm Calm 2.5 mph4.0 kmh 30.03 in1016.9 mb 0.00 in0.0 mm 0.00 in0.0 mm 0.00 in0.0 mm
01:42 AM 75.3°F24.1°C 73.4°F23.0°C 94% 1.8 mph NE2.9 kmh NE 2.5 mph4.0 kmh 30.03 in1016.9 mb 0.00 in0.0 mm 0.00 in0.0 mm 0.00 in0.0 mm
01:37 AM 75.2°F24.0°C 73.6°F23.1°C 95% 1.3 mph ENE2.1 kmh ENE 2.5 mph4.0 kmh 30.03 in1016.9 mb 0.00 in0.0 mm 0.00 in0.0 mm 0.00 in0.0 mm
01:32 AM 75.1°F23.9°C 73.2°F22.9°C 94% 1.3 mph ENE2.1 kmh ENE 2.5 mph4.0 kmh 30.04 in1017.3 mb 0.00 in0.0 mm 0.00 in0.0 mm 0.00 in0.0 mm
01:27 AM 75.2°F24.0°C 73.4°F23.0°C 94% 1.8 mph ENE2.9 kmh ENE 3.8 mph6.1 kmh 30.04 in1017.3 mb 0.00 in0.0 mm 0.00 in0.0 mm 0.00 in0.0 mm
01:22 AM 75.2°F24.0°C 73.7°F23.2°C 95% 1.3 mph ENE2.1 kmh ENE 3.8 mph6.1 kmh 30.04 in1017.3 mb 0.00 in0.0 mm 0.00 in0.0 mm 0.00 in0.0 mm
01:17 AM 75.1°F23.9°C 73.2°F22.9°C 94% Calm Calm 2.0 mph3.2 kmh 30.04 in1017.3 mb 0.00 in0.0 mm 0.00 in0.0 mm 0.00 in0.0 mm
01:12 AM 75.3°F24.1°C 73.7°F23.2°C 95% Calm Calm 2.5 mph4.0 kmh 30.04 in1017.3 mb 0.00 in0.0 mm 0.00 in0.0 mm 0.00 in0.0 mm
01:07 AM 75.2°F24.0°C 73.7°F23.2°C 95% Calm Calm 2.5 mph4.0 kmh 30.04 in1017.3 mb 0.00 in0.0 mm 0.00 in0.0 mm 0.00 in0.0 mm
01:02 AM 75.0°F23.9°C 73.4°F23.0°C 95% 1.7 mph ENE2.7 kmh ENE 2.5 mph4.0 kmh 30.04 in1017.3 mb 0.00 in0.0 mm 0.00 in0.0 mm 0.00 in0.0 mm
12:57 AM 74.8°F23.8°C 73.3°F22.9°C 95% Calm Calm -- 30.04 in1017.3 mb 0.00 in0.0 mm 0.00 in0.0 mm 0.00 in0.0 mm
12:52 AM 74.6°F23.7°C 73.1°F22.8°C 95% Calm Calm -- 30.04 in1017.3 mb 0.00 in0.0 mm 0.00 in0.0 mm 0.00 in0.0 mm
12:47 AM 74.6°F23.7°C 73.0°F22.8°C 95% Calm Calm -- 30.04 in1017.3 mb 0.00 in0.0 mm 0.00 in0.0 mm 0.00 in0.0 mm
12:42 AM 74.6°F23.7°C 73.1°F22.8°C 95% Calm Calm -- 30.04 in1017.3 mb 0.00 in0.0 mm 0.00 in0.0 mm 0.00 in0.0 mm
12:37 AM 74.5°F23.6°C 72.6°F22.6°C 94% Calm Calm -- 30.05 in1017.6 mb 0.00 in0.0 mm 0.00 in0.0 mm 0.00 in0.0 mm
12:32 AM 74.6°F23.7°C 72.8°F22.7°C 94% Calm Calm -- 30.05 in1017.6 mb 0.00 in0.0 mm 0.00 in0.0 mm 0.00 in0.0 mm
12:27 AM 74.7°F23.7°C 72.8°F22.7°C 94% Calm Calm -- 30.05 in1017.6 mb 0.00 in0.0 mm 0.00 in0.0 mm 0.00 in0.0 mm
12:22 AM 74.7°F23.7°C 72.8°F22.7°C 94% Calm Calm 1.0 mph1.6 kmh 30.05 in1017.6 mb 0.00 in0.0 mm 0.00 in0.0 mm 0.00 in0.0 mm
12:17 AM 74.8°F23.8°C 73.0°F22.8°C 94% Calm Calm 1.0 mph1.6 kmh 30.05 in1017.6 mb 0.00 in0.0 mm 0.00 in0.0 mm 0.00 in0.0 mm
12:12 AM 74.7°F23.7°C 72.8°F22.7°C 94% Calm Calm 2.5 mph4.0 kmh 30.05 in1017.6 mb 0.00 in0.0 mm 0.00 in0.0 mm 0.00 in0.0 mm
12:07 AM 74.7°F23.7°C 72.9°F22.7°C 94% Calm Calm 2.5 mph4.0 kmh 30.05 in1017.6 mb 0.00 in0.0 mm 0.00 in0.0 mm 0.00 in0.0 mm
12:02 AM 74.7°F23.7°C 72.8°F22.7°C 94% Calm Calm 1.3 mph2.1 kmh 30.05 in1017.6 mb 0.00 in0.0 mm 0.00 in0.0 mm 0.00 in0.0 mm